createdAt,value
2022-12-22T00:01:55.914Z,126.60
2022-12-22T00:04:42.710Z,123.07
2022-12-22T00:07:28.530Z,126.23
2022-12-22T00:10:15.441Z,125.37
2022-12-22T00:13:00.774Z,127.33
2022-12-22T00:15:50.076Z,122.50
2022-12-22T00:18:36.133Z,123.27
2022-12-22T00:21:22.063Z,123.93
2022-12-22T00:24:07.713Z,121.77
2022-12-22T00:26:55.337Z,122.10
2022-12-22T00:29:41.009Z,126.23
2022-12-22T00:32:32.347Z,124.40
2022-12-22T00:35:18.965Z,122.63
2022-12-22T00:38:05.096Z,125.10
2022-12-22T00:40:50.408Z,123.00
2022-12-22T00:43:37.367Z,123.80
2022-12-22T00:46:23.386Z,123.83
2022-12-22T00:49:09.657Z,122.37
2022-12-22T00:51:55.654Z,118.37
2022-12-22T00:54:41.666Z,120.33
2022-12-22T00:57:34.061Z,120.37
2022-12-22T01:00:23.098Z,118.63
2022-12-22T01:03:09.059Z,119.23
2022-12-22T01:05:54.716Z,117.93
2022-12-22T01:08:40.263Z,116.93
2022-12-22T01:11:26.586Z,116.30
2022-12-22T01:14:11.914Z,110.23
2022-12-22T01:16:58.822Z,111.70
2022-12-22T01:19:44.208Z,112.60
2022-12-22T01:22:30.994Z,112.70
2022-12-22T01:25:16.869Z,110.13
2022-12-22T01:28:02.339Z,112.93
2022-12-22T01:30:47.763Z,113.77
2022-12-22T01:33:34.815Z,113.67
2022-12-22T01:36:19.975Z,111.20
2022-12-22T01:39:05.753Z,110.40
2022-12-22T01:41:51.855Z,107.20
2022-12-22T01:44:37.722Z,106.63
2022-12-22T01:48:00.103Z,108.13
2022-12-22T01:50:52.302Z,110.27
2022-12-22T01:53:41.999Z,109.00
2022-12-22T01:56:28.016Z,109.23
2022-12-22T01:59:17.383Z,107.50
2022-12-22T02:02:03.854Z,108.50
2022-12-22T02:04:53.089Z,115.40
2022-12-22T02:07:56.443Z,112.93
2022-12-22T02:10:58.576Z,111.87
2022-12-22T02:13:53.457Z,112.50
2022-12-22T02:16:46.322Z,112.60
2022-12-22T02:19:43.792Z,112.30
2022-12-22T02:22:40.262Z,108.93
2022-12-22T02:25:35.006Z,104.27
2022-12-22T02:28:24.405Z,98.90
2022-12-22T02:31:11.118Z,100.07
2022-12-22T02:33:57.184Z,100.30
2022-12-22T02:36:56.720Z,102.73
2022-12-22T02:39:54.562Z,100.63
2022-12-22T02:42:51.272Z,103.13
2022-12-22T02:45:46.893Z,98.57
2022-12-22T02:48:39.499Z,102.67
2022-12-22T02:51:30.165Z,97.13
2022-12-22T02:54:16.571Z,99.17
2022-12-22T02:57:02.742Z,97.13
2022-12-22T02:59:48.147Z,96.10
2022-12-22T03:02:35.154Z,100.10
2022-12-22T03:05:21.228Z,97.67
2022-12-22T03:08:08.734Z,102.67
2022-12-22T03:10:55.091Z,102.37
2022-12-22T03:13:40.964Z,99.77
2022-12-22T03:16:26.410Z,99.67
2022-12-22T03:19:13.324Z,101.60
2022-12-22T03:21:59.678Z,100.00
2022-12-22T03:24:45.033Z,106.43
2022-12-22T03:27:13.217Z,102.23
2022-12-22T03:29:41.276Z,98.50
2022-12-22T03:32:09.327Z,97.47
2022-12-22T03:34:38.769Z,101.20
2022-12-22T03:37:06.842Z,98.60
2022-12-22T03:39:34.895Z,97.40
2022-12-22T03:42:20.509Z,97.07
2022-12-22T03:45:06.318Z,99.10
2022-12-22T03:47:34.501Z,100.53
2022-12-22T03:50:04.006Z,102.27
2022-12-22T03:52:32.053Z,101.53
2022-12-22T03:55:00.173Z,102.13
2022-12-22T03:57:28.197Z,105.13
2022-12-22T03:59:56.323Z,103.97
2022-12-22T04:02:24.529Z,104.50
2022-12-22T04:04:52.646Z,102.27
2022-12-22T04:07:22.093Z,102.03
2022-12-22T04:10:04.053Z,98.07
2022-12-22T04:12:49.646Z,98.20
2022-12-22T04:15:18.021Z,99.03
2022-12-22T04:17:46.071Z,103.00
2022-12-22T04:20:14.294Z,102.57
2022-12-22T04:22:43.891Z,101.73
2022-12-22T04:25:12.478Z,105.17
2022-12-22T04:27:40.662Z,108.47
2022-12-22T04:30:10.163Z,105.00
2022-12-22T04:32:38.298Z,104.53
2022-12-22T04:35:08.323Z,102.40
2022-12-22T04:37:36.444Z,104.47
2022-12-22T04:40:07.109Z,105.30
2022-12-22T04:42:35.338Z,105.47
2022-12-22T04:45:03.424Z,101.77
2022-12-22T04:47:31.532Z,103.77
2022-12-22T04:50:00.190Z,100.30
2022-12-22T04:52:28.300Z,99.07
2022-12-22T04:54:56.413Z,100.20
2022-12-22T04:57:26.052Z,101.03
2022-12-22T04:59:55.348Z,100.73
2022-12-22T05:02:23.697Z,97.63
2022-12-22T05:04:51.800Z,98.70
2022-12-22T05:07:20.831Z,97.23
2022-12-22T05:09:48.959Z,98.27
2022-12-22T05:12:34.609Z,101.83
2022-12-22T05:15:04.492Z,97.77
2022-12-22T05:17:32.685Z,98.97
2022-12-22T05:20:00.700Z,97.10
2022-12-22T05:22:28.789Z,98.73
2022-12-22T05:24:57.318Z,96.57
2022-12-22T05:27:25.430Z,101.27
2022-12-22T05:29:53.505Z,99.03
2022-12-22T05:32:23.045Z,97.97
2022-12-22T05:34:51.131Z,100.03
2022-12-22T05:37:19.326Z,98.67
2022-12-22T05:39:47.363Z,99.73
2022-12-22T05:42:35.437Z,98.80
2022-12-22T05:45:05.597Z,98.57
2022-12-22T05:47:35.168Z,100.47
2022-12-22T05:50:03.608Z,99.80
2022-12-22T05:52:31.661Z,100.93
2022-12-22T05:54:59.753Z,98.43
2022-12-22T05:57:27.948Z,96.80
2022-12-22T05:59:56.004Z,98.83
2022-12-22T06:02:24.466Z,96.87
2022-12-22T06:04:54.336Z,99.63
2022-12-22T06:07:30.384Z,96.37
2022-12-22T06:09:58.520Z,99.00
2022-12-22T06:12:26.673Z,97.87
2022-12-22T06:14:54.705Z,97.90
2022-12-22T06:17:22.810Z,97.60
2022-12-22T06:19:50.928Z,95.40
2022-12-22T06:22:20.408Z,96.87
2022-12-22T06:24:48.450Z,99.80
2022-12-22T06:27:16.622Z,102.67
2022-12-22T06:29:44.687Z,100.53
2022-12-22T06:32:12.767Z,99.90
2022-12-22T06:34:40.883Z,98.27
2022-12-22T06:37:08.963Z,95.20
2022-12-22T06:39:38.483Z,99.57
2022-12-22T06:42:23.775Z,96.53
2022-12-22T06:44:54.954Z,96.30
2022-12-22T06:47:23.444Z,97.40
2022-12-22T06:49:52.334Z,97.33
2022-12-22T06:52:20.547Z,95.87
2022-12-22T06:54:50.158Z,90.67
2022-12-22T06:57:18.232Z,95.93
2022-12-22T06:59:46.939Z,96.43
2022-12-22T07:02:17.087Z,98.37
2022-12-22T07:04:45.480Z,100.90
2022-12-22T07:07:13.539Z,96.43
2022-12-22T07:09:41.691Z,98.37
2022-12-22T07:12:11.151Z,96.50
2022-12-22T07:14:39.222Z,101.90
2022-12-22T07:17:07.307Z,99.20
2022-12-22T07:19:35.385Z,99.43
2022-12-22T07:22:03.560Z,97.43
2022-12-22T07:24:31.622Z,96.10
2022-12-22T07:27:00.214Z,93.80
2022-12-22T07:29:29.664Z,100.03
2022-12-22T07:31:57.856Z,99.30
2022-12-22T07:34:25.938Z,100.43
2022-12-22T07:36:54.010Z,99.30
2022-12-22T07:39:22.085Z,97.17
2022-12-22T07:42:07.605Z,98.60
2022-12-22T07:44:37.111Z,102.83
2022-12-22T07:47:05.398Z,100.40
2022-12-22T07:49:50.742Z,98.20
2022-12-22T07:52:18.850Z,96.67
2022-12-22T07:54:46.902Z,98.50
2022-12-22T07:57:14.953Z,98.43
2022-12-22T07:59:44.507Z,98.10
2022-12-22T08:02:13.123Z,100.40
2022-12-22T08:04:41.403Z,100.20
2022-12-22T08:07:09.484Z,98.27
2022-12-22T08:09:37.540Z,98.03
2022-12-22T08:12:06.123Z,98.97
2022-12-22T08:14:34.210Z,97.23
2022-12-22T08:17:03.792Z,99.90
2022-12-22T08:19:32.917Z,100.50
2022-12-22T08:22:01.376Z,98.57
2022-12-22T08:24:29.993Z,97.57
2022-12-22T08:27:01.429Z,97.03
2022-12-22T08:29:34.399Z,97.30
2022-12-22T08:32:04.180Z,96.57
2022-12-22T08:34:32.544Z,92.30
2022-12-22T08:37:04.041Z,94.30
2022-12-22T08:39:35.423Z,97.23
2022-12-22T08:42:06.760Z,96.53
2022-12-22T08:44:34.890Z,90.23
2022-12-22T08:47:04.454Z,89.97
2022-12-22T08:49:32.946Z,86.37
2022-12-22T08:52:01.262Z,86.07
2022-12-22T08:54:29.720Z,69.80
2022-12-22T08:56:58.739Z,70.97
2022-12-22T08:59:26.832Z,79.57
2022-12-22T09:01:54.965Z,80.17
2022-12-22T09:04:25.540Z,83.30
2022-12-22T09:06:54.411Z,80.13
2022-12-22T09:09:22.584Z,80.37
2022-12-22T09:11:50.823Z,78.73
2022-12-22T09:14:19.272Z,78.03
2022-12-22T09:16:47.337Z,74.47
2022-12-22T09:19:15.613Z,77.43
2022-12-22T09:21:45.127Z,77.70
2022-12-22T09:24:14.656Z,75.90
2022-12-22T09:26:43.070Z,75.37
2022-12-22T09:29:11.132Z,74.77
2022-12-22T09:31:41.705Z,72.50
2022-12-22T09:34:16.866Z,73.47
2022-12-22T09:36:48.097Z,70.40
2022-12-22T09:39:17.240Z,72.43
2022-12-22T09:41:48.438Z,71.20
2022-12-22T09:44:26.407Z,69.60
2022-12-22T09:46:56.968Z,66.93
2022-12-22T09:49:25.835Z,66.07
2022-12-22T09:51:58.476Z,67.33
2022-12-22T09:54:27.433Z,66.93
2022-12-22T09:56:55.493Z,67.87
2022-12-22T09:59:27.095Z,71.70
2022-12-22T10:02:04.178Z,66.63
2022-12-22T10:04:50.480Z,69.73
2022-12-22T10:07:27.628Z,70.63
2022-12-22T10:09:56.196Z,61.20
2022-12-22T10:12:26.840Z,65.87
2022-12-22T10:14:55.606Z,71.10
2022-12-22T10:17:28.194Z,66.77
2022-12-22T10:20:10.771Z,65.03
2022-12-22T10:22:49.029Z,69.77
2022-12-22T10:26:00.051Z,67.60
2022-12-22T10:28:25.479Z,70.83
2022-12-22T10:31:12.876Z,80.37
2022-12-22T10:33:46.840Z,73.90
2022-12-22T10:36:17.556Z,79.13
2022-12-22T10:38:58.498Z,73.80
2022-12-22T10:41:29.198Z,84.13
2022-12-22T10:44:00.183Z,79.40
2022-12-22T10:46:36.015Z,72.80
2022-12-22T10:49:18.188Z,79.57
2022-12-22T10:51:49.697Z,74.43
2022-12-22T10:54:31.457Z,74.80
2022-12-22T10:57:30.416Z,77.27
2022-12-22T11:00:00.347Z,75.57
2022-12-22T11:02:34.176Z,73.80
2022-12-22T11:05:06.136Z,73.93
2022-12-22T11:07:36.297Z,84.40
2022-12-22T11:10:17.803Z,75.83
2022-12-22T11:13:12.111Z,78.77
2022-12-22T11:15:49.715Z,81.77
2022-12-22T11:18:37.037Z,76.03
2022-12-22T11:21:16.180Z,76.17
2022-12-22T11:23:55.640Z,76.20
2022-12-22T11:26:36.926Z,77.57
2022-12-22T11:29:30.937Z,72.30
2022-12-22T11:32:13.597Z,69.60
2022-12-22T11:34:56.139Z,71.33
2022-12-22T11:37:35.430Z,76.57
2022-12-22T11:40:13.072Z,74.50
2022-12-22T11:42:56.638Z,72.67
2022-12-22T11:45:43.307Z,73.57
2022-12-22T11:48:30.644Z,76.03
2022-12-22T11:51:10.506Z,74.47
2022-12-22T11:54:27.777Z,73.00
2022-12-22T11:57:05.007Z,70.70
2022-12-22T11:59:47.808Z,67.67
2022-12-22T12:02:49.753Z,63.20
2022-12-22T12:05:37.973Z,61.40
2022-12-22T12:08:16.341Z,64.93
2022-12-22T12:10:48.922Z,59.20
2022-12-22T12:13:33.162Z,62.40
2022-12-22T12:16:18.415Z,60.93
2022-12-22T12:19:13.147Z,59.30
2022-12-22T12:21:48.355Z,59.67
2022-12-22T12:24:40.625Z,60.27
2022-12-22T12:27:22.297Z,65.57
2022-12-22T12:30:28.594Z,61.67
2022-12-22T12:32:54.084Z,62.40
2022-12-22T12:35:59.649Z,62.70
2022-12-22T12:39:07.010Z,63.60
2022-12-22T12:41:32.670Z,62.20
2022-12-22T12:44:02.372Z,62.10
2022-12-22T12:47:01.725Z,58.23
2022-12-22T12:49:59.646Z,61.87
2022-12-22T12:53:15.770Z,57.20
2022-12-22T12:56:04.902Z,62.70
2022-12-22T12:58:53.836Z,61.13
2022-12-22T13:01:58.616Z,63.03
2022-12-22T13:05:09.436Z,61.87
2022-12-22T13:08:19.409Z,63.07
2022-12-22T13:10:50.447Z,66.67
2022-12-22T13:13:52.274Z,64.77
2022-12-22T13:16:39.834Z,62.47
2022-12-22T13:19:21.292Z,69.27
2022-12-22T13:21:53.478Z,63.43
2022-12-22T13:24:29.136Z,68.17
2022-12-22T13:27:03.318Z,70.97
2022-12-22T13:29:42.024Z,73.83
2022-12-22T13:32:23.078Z,72.97
2022-12-22T13:35:29.572Z,71.30
2022-12-22T13:37:48.878Z,73.03
2022-12-22T13:40:22.430Z,71.97
2022-12-22T13:42:53.199Z,74.67
2022-12-22T13:45:37.256Z,74.00
2022-12-22T13:48:10.758Z,78.60
2022-12-22T13:50:40.695Z,75.63
2022-12-22T13:53:22.904Z,66.97
2022-12-22T13:56:01.586Z,73.77
2022-12-22T13:58:32.265Z,71.37
2022-12-22T14:01:14.468Z,80.10
2022-12-22T14:04:04.373Z,66.20
2022-12-22T14:06:36.090Z,77.60
2022-12-22T14:09:18.667Z,67.90
2022-12-22T14:11:53.056Z,76.63
2022-12-22T14:14:25.983Z,70.97
2022-12-22T14:16:56.309Z,77.87
2022-12-22T14:19:26.150Z,75.67
2022-12-22T14:22:05.826Z,65.43
2022-12-22T14:24:39.084Z,57.00
2022-12-22T14:27:19.822Z,51.70
2022-12-22T14:29:48.092Z,50.83
2022-12-22T14:32:38.364Z,51.60
2022-12-22T14:35:17.683Z,51.00
2022-12-22T14:37:45.794Z,52.90
2022-12-22T14:40:29.012Z,59.30
2022-12-22T14:43:00.159Z,56.77
2022-12-22T14:45:28.561Z,66.30
2022-12-22T14:47:57.573Z,66.77
2022-12-22T14:50:28.229Z,66.07
2022-12-22T14:52:58.523Z,53.40
2022-12-22T14:55:30.023Z,52.60
2022-12-22T14:58:03.960Z,60.30
2022-12-22T15:00:35.687Z,69.40
2022-12-22T15:03:06.979Z,58.37
2022-12-22T15:05:37.470Z,68.93
2022-12-22T15:08:09.327Z,60.30
2022-12-22T15:10:43.813Z,58.07
2022-12-22T15:13:25.181Z,52.57
2022-12-22T15:15:53.775Z,55.80
2022-12-22T15:18:25.831Z,62.30
2022-12-22T15:20:54.148Z,57.07
2022-12-22T15:23:22.249Z,56.50
2022-12-22T15:25:50.371Z,53.80
2022-12-22T15:28:19.817Z,58.20
2022-12-22T15:30:49.281Z,61.00
2022-12-22T15:33:19.922Z,62.93
2022-12-22T15:35:48.314Z,58.60
2022-12-22T15:38:19.076Z,62.77
2022-12-22T15:40:47.210Z,68.07
2022-12-22T15:43:56.020Z,69.10
2022-12-22T15:46:07.652Z,68.60
2022-12-22T15:48:37.626Z,64.53
2022-12-22T15:51:07.812Z,66.00
2022-12-22T15:53:38.039Z,64.33
2022-12-22T15:56:10.151Z,60.83
2022-12-22T15:58:40.741Z,54.20
2022-12-22T16:01:11.872Z,55.17
2022-12-22T16:03:40.379Z,55.33
2022-12-22T16:06:14.922Z,52.00
2022-12-22T16:08:47.200Z,59.13
2022-12-22T16:11:15.410Z,55.10
2022-12-22T16:13:43.613Z,52.60
2022-12-22T16:16:13.498Z,57.33
2022-12-22T16:18:41.592Z,58.20
2022-12-22T16:21:15.788Z,52.43
2022-12-22T16:23:45.977Z,60.80
2022-12-22T16:26:18.081Z,54.60
2022-12-22T16:28:46.776Z,54.97
2022-12-22T16:31:21.281Z,54.57
2022-12-22T16:33:50.143Z,51.93
2022-12-22T16:36:18.399Z,48.47
2022-12-22T16:38:47.678Z,44.50
2022-12-22T16:41:21.802Z,45.73
2022-12-22T16:43:51.020Z,40.87
2022-12-22T16:46:22.968Z,43.30
2022-12-22T16:48:53.187Z,42.10
2022-12-22T16:51:25.031Z,42.03
2022-12-22T16:53:53.792Z,41.00
2022-12-22T16:56:26.908Z,40.73
2022-12-22T16:58:55.090Z,38.60
2022-12-22T17:01:32.999Z,38.93
2022-12-22T17:04:05.605Z,39.00
2022-12-22T17:06:34.163Z,40.83
2022-12-22T17:09:04.180Z,42.83
2022-12-22T17:11:34.534Z,47.53
2022-12-22T17:14:07.024Z,44.77
2022-12-22T17:16:36.676Z,44.47
2022-12-22T17:19:04.856Z,42.30
2022-12-22T17:21:33.747Z,41.03
2022-12-22T17:24:04.918Z,43.00
2022-12-22T17:26:34.697Z,38.27
2022-12-22T17:29:03.074Z,35.63
2022-12-22T17:31:31.365Z,36.97
2022-12-22T17:34:00.880Z,36.50
2022-12-22T17:36:33.988Z,35.23
2022-12-22T17:39:03.235Z,33.87
2022-12-22T17:41:31.554Z,34.80
2022-12-22T17:43:59.744Z,33.37
2022-12-22T17:46:28.637Z,32.00
2022-12-22T17:48:56.744Z,31.93
2022-12-22T17:51:28.800Z,33.33
2022-12-22T17:53:58.853Z,32.43
2022-12-22T17:56:28.851Z,34.77
2022-12-22T17:58:57.019Z,32.50
2022-12-22T18:01:27.938Z,34.23
2022-12-22T18:03:57.123Z,32.30
2022-12-22T18:06:28.934Z,32.60
2022-12-22T18:08:58.312Z,31.10
2022-12-22T18:11:27.212Z,28.63
2022-12-22T18:13:57.423Z,31.30
2022-12-22T18:16:25.768Z,30.47
2022-12-22T18:18:53.883Z,29.47
2022-12-22T18:21:24.199Z,28.57
2022-12-22T18:23:53.817Z,27.40
2022-12-22T18:26:24.543Z,26.50
2022-12-22T18:28:53.583Z,25.70
2022-12-22T18:31:23.072Z,25.27
2022-12-22T18:33:51.523Z,24.00
2022-12-22T18:36:24.994Z,23.40
2022-12-22T18:38:54.997Z,22.83
2022-12-22T18:41:25.385Z,24.10
2022-12-22T18:43:53.992Z,23.73
2022-12-22T18:46:22.514Z,24.17
2022-12-22T18:48:50.773Z,23.03
2022-12-22T18:51:21.824Z,23.40
2022-12-22T18:53:51.119Z,23.70
2022-12-22T18:56:21.139Z,22.13
2022-12-22T18:58:49.484Z,22.63
2022-12-22T19:01:21.042Z,22.90
2022-12-22T19:03:49.662Z,23.90
2022-12-22T19:06:20.773Z,24.27
2022-12-22T19:08:49.600Z,24.13
2022-12-22T19:11:23.008Z,23.60
2022-12-22T19:13:52.604Z,24.30
2022-12-22T19:16:24.417Z,24.30
2022-12-22T19:18:52.555Z,24.33
2022-12-22T19:21:20.921Z,24.87
2022-12-22T19:23:49.604Z,25.67
2022-12-22T19:26:23.038Z,25.80
2022-12-22T19:28:53.921Z,25.17
2022-12-22T19:31:25.739Z,25.40
2022-12-22T19:33:54.509Z,26.70
2022-12-22T19:36:26.594Z,24.77
2022-12-22T19:39:02.801Z,25.60
2022-12-22T19:41:39.895Z,26.13
2022-12-22T19:44:18.085Z,26.43
2022-12-22T19:46:46.706Z,25.53
2022-12-22T19:49:17.700Z,27.23
2022-12-22T19:51:45.912Z,27.00
2022-12-22T19:54:14.334Z,26.33
2022-12-22T19:56:47.501Z,27.07
2022-12-22T19:59:27.334Z,27.00
2022-12-22T20:01:58.535Z,27.30
2022-12-22T20:04:26.949Z,27.73
2022-12-22T20:06:55.181Z,27.20
2022-12-22T20:09:23.260Z,28.13
2022-12-22T20:11:52.789Z,27.37
2022-12-22T20:14:21.086Z,29.37
2022-12-22T20:16:49.306Z,36.13
2022-12-22T20:19:17.579Z,38.27
2022-12-22T20:21:45.932Z,44.70
2022-12-22T20:24:22.205Z,44.43
2022-12-22T20:26:54.885Z,48.73
2022-12-22T20:29:25.185Z,46.13
2022-12-22T20:31:53.514Z,40.97
2022-12-22T20:34:21.594Z,39.70
2022-12-22T20:36:50.016Z,37.60
2022-12-22T20:39:20.585Z,34.83
2022-12-22T20:41:53.412Z,33.97
2022-12-22T20:44:24.121Z,33.93
2022-12-22T20:46:52.414Z,32.50
2022-12-22T20:49:20.476Z,34.47
2022-12-22T20:51:48.920Z,31.67
2022-12-22T20:54:17.181Z,32.93
2022-12-22T20:56:46.155Z,31.87
2022-12-22T20:59:18.003Z,30.70
2022-12-22T21:01:48.906Z,30.07
2022-12-22T21:04:18.293Z,30.93
2022-12-22T21:06:49.845Z,32.13
2022-12-22T21:09:18.547Z,31.80
2022-12-22T21:11:46.725Z,29.50
2022-12-22T21:14:16.860Z,29.00
2022-12-22T21:16:45.066Z,31.40
2022-12-22T21:19:18.887Z,31.50
2022-12-22T21:21:47.305Z,31.73
2022-12-22T21:24:15.482Z,32.30
2022-12-22T21:26:46.871Z,34.13
2022-12-22T21:29:19.206Z,33.97
2022-12-22T21:31:47.521Z,33.20
2022-12-22T21:34:17.508Z,35.03
2022-12-22T21:36:49.922Z,34.10
2022-12-22T21:39:29.747Z,32.37
2022-12-22T21:42:01.095Z,32.47
2022-12-22T21:44:29.650Z,33.17
2022-12-22T21:46:58.293Z,31.00
2022-12-22T21:49:30.570Z,32.50
2022-12-22T21:51:58.898Z,29.93
2022-12-22T21:54:27.975Z,31.77
2022-12-22T21:56:56.486Z,31.23
2022-12-22T21:59:24.600Z,29.97
2022-12-22T22:01:53.567Z,29.63
2022-12-22T22:04:22.318Z,30.57
2022-12-22T22:06:51.940Z,30.67
2022-12-22T22:09:20.047Z,31.60
2022-12-22T22:12:05.322Z,32.80
2022-12-22T22:14:33.424Z,31.10
2022-12-22T22:17:01.551Z,31.70
2022-12-22T22:19:29.662Z,33.33
2022-12-22T22:21:59.139Z,32.07
2022-12-22T22:24:27.234Z,32.53
2022-12-22T22:26:56.583Z,30.53
2022-12-22T22:29:24.635Z,29.53
2022-12-22T22:31:52.789Z,29.07
2022-12-22T22:34:20.943Z,27.57
2022-12-22T22:36:49.045Z,28.53
2022-12-22T22:39:18.490Z,25.40
2022-12-22T22:41:46.573Z,25.03
2022-12-22T22:44:14.721Z,24.53
2022-12-22T22:46:42.918Z,25.03
2022-12-22T22:49:11.259Z,25.70
2022-12-22T22:51:39.332Z,24.70
2022-12-22T22:54:07.436Z,25.67
2022-12-22T22:56:38.870Z,24.20
2022-12-22T22:59:07.064Z,24.77
2022-12-22T23:01:35.306Z,25.53
2022-12-22T23:04:03.450Z,25.20
2022-12-22T23:06:31.739Z,25.60
2022-12-22T23:09:00.732Z,26.10
2022-12-22T23:11:28.850Z,28.10
2022-12-22T23:13:58.321Z,26.70
2022-12-22T23:16:29.560Z,27.67
2022-12-22T23:19:01.919Z,28.77
2022-12-22T23:21:30.056Z,28.60
2022-12-22T23:23:59.176Z,31.77
2022-12-22T23:26:27.616Z,35.33
2022-12-22T23:29:02.663Z,36.93
2022-12-22T23:31:33.617Z,34.83
2022-12-22T23:34:02.047Z,38.50
2022-12-22T23:36:30.248Z,37.90
2022-12-22T23:38:58.916Z,36.30
2022-12-22T23:41:27.024Z,33.37
2022-12-22T23:43:55.490Z,32.10
2022-12-22T23:46:24.005Z,32.07
2022-12-22T23:48:55.677Z,31.63
2022-12-22T23:51:26.726Z,32.00
2022-12-22T23:53:54.942Z,33.93
2022-12-22T23:56:23.321Z,32.67
2022-12-22T23:58:54.856Z,33.93
